Time;durP1;ratioP1;P1;durP2;ratioP2;P2;SDS_P1;SDS_P2;PMS_P1;PMS_P2;Temp;Humidity;BMP_temperature;BMP_pressure;BME280_temperature;BME280_humidity;BME280_pressure;Samples;Min_cycle;Max_cycle;Signal;HPM_P1;HPM_P2
2022/12/17 13:06:42;;;;;;;23.87;17.90;;;;;;;4.91;73.22;99899.59;1723421;82;21078;-57
2022/12/17 13:09:19;;;;;;;12.68;7.15;;;;;;;4.89;73.10;99900.60;1684990;83;21159;-57
2022/12/17 13:11:57;;;;;;;13.62;6.58;;;;;;;4.92;73.00;99895.20;1683675;84;21571;-57
2022/12/17 13:14:52;;;;;;;19.50;13.80;;;;;;;4.98;72.69;99883.91;1670405;83;21667;-56
2022/12/17 13:17:30;;;;;;;12.20;6.20;;;;;;;5.02;72.49;99876.23;1677610;83;21044;-56
2022/12/17 13:20:01;;;;;;;16.02;12.47;;;;;;;5.09;72.51;99878.45;1675948;85;21134;-56
2022/12/17 13:22:32;;;;;;;17.77;12.20;;;;;;;5.11;72.45;99873.52;1679468;83;21086;-57
2022/12/17 13:25:21;;;;;;;12.28;5.42;;;;;;;5.14;72.46;99863.34;1677920;83;21038;-57
2022/12/17 13:27:48;;;;;;;15.98;10.23;;;;;;;5.17;72.51;99852.23;1677897;83;21385;-57
2022/12/17 13:30:20;;;;;;;11.45;6.17;;;;;;;5.18;72.39;99855.70;1682301;83;21222;-56
2022/12/17 13:33:02;;;;;;;15.40;11.18;;;;;;;5.14;72.29;99854.22;1681195;84;21488;-59
2022/12/17 13:35:56;;;;;;;9.20;4.92;;;;;;;5.10;72.16;99850.15;1683421;85;21188;-56
2022/12/17 13:39:01;;;;;;;9.60;4.83;;;;;;;5.16;71.65;99844.51;1681641;83;21126;-56
2022/12/17 13:41:30;;;;;;;6.05;2.85;;;;;;;5.26;71.43;99833.86;1684519;83;21071;-57
2022/12/17 13:44:22;;;;;;;11.10;6.62;;;;;;;5.31;71.24;99808.75;1683068;85;22054;-57
2022/12/17 13:46:51;;;;;;;9.63;5.83;;;;;;;5.31;71.06;99810.91;1680989;83;21569;-57
2022/12/17 13:49:28;;;;;;;14.10;9.35;;;;;;;5.32;71.22;99828.21;1680366;83;21096;-56
2022/12/17 13:52:08;;;;;;;14.80;9.80;;;;;;;5.28;71.00;99835.89;1679724;83;21106;-57
2022/12/17 13:54:35;;;;;;;14.38;10.60;;;;;;;5.19;70.87;99839.09;1677948;83;21125;-57
2022/12/17 13:57:14;;;;;;;10.58;5.47;;;;;;;5.12;70.93;99837.84;1680576;84;21252;-56
2022/12/17 13:59:53;;;;;;;19.30;11.85;;;;;;;4.99;71.21;99829.53;1685488;83;21070;-57
2022/12/17 14:02:31;;;;;;;11.68;5.80;;;;;;;4.93;71.24;99837.74;1667711;84;21075;-57
2022/12/17 14:05:00;;;;;;;10.30;5.33;;;;;;;4.91;71.33;99826.59;1686320;84;21124;-56
2022/12/17 14:07:27;;;;;;;8.40;5.17;;;;;;;4.98;71.16;99814.81;1681419;84;21111;-57
2022/12/17 14:14:40;;;;;;;17.20;11.30;;;;;;;5.27;71.52;99803.37;1767392;80;21516;-70
2022/12/17 14:17:19;;;;;;;18.27;11.30;;;;;;;5.30;71.42;99807.09;1754334;78;21290;-70
2022/12/17 14:21:08;;;;;;;11.35;6.30;;;;;;;5.15;71.31;99800.65;1865172;75;22400;-71
2022/12/17 14:23:36;;;;;;;17.10;11.78;;;;;;;5.13;71.06;99792.58;1834708;77;21077;-71
2022/12/17 14:26:02;;;;;;;15.00;5.95;;;;;;;5.09;71.06;99791.92;1833762;77;22242;-71
2022/12/17 14:28:37;;;;;;;11.12;5.72;;;;;;;5.10;71.06;99799.30;1836561;77;20934;-71
2022/12/17 14:32:32;;;;;;;10.68;4.97;;;;;;;5.10;71.38;99789.69;1775907;78;22627;-70
2022/12/17 14:34:59;;;;;;;9.65;5.15;;;;;;;5.10;71.16;99802.73;1744285;80;21068;-70
2022/12/17 14:37:26;;;;;;;15.18;10.30;;;;;;;5.12;71.41;99798.72;1757732;80;21234;-70
2022/12/17 14:40:01;;;;;;;14.95;10.80;;;;;;;5.09;71.33;99801.05;1753479;80;20978;-69
2022/12/17 14:42:29;;;;;;;10.05;5.87;;;;;;;5.01;71.16;99792.45;1745371;80;20948;-67
2022/12/17 14:45:15;;;;;;;10.82;5.70;;;;;;;4.98;71.55;99791.81;1751497;80;21069;-68
2022/12/17 14:47:54;;;;;;;17.32;10.15;;;;;;;4.99;71.60;99798.23;1715975;83;21093;-69
2022/12/17 14:50:26;;;;;;;9.73;4.75;;;;;;;5.10;71.34;99801.91;1705794;83;21854;-68
2022/12/17 14:52:54;;;;;;;8.80;4.33;;;;;;;5.16;71.09;99817.98;1708306;83;21035;-69
2022/12/17 14:58:16;;;;;;;17.05;10.93;;;;;;;4.92;71.21;99820.89;1792932;78;22081;-68
2022/12/17 15:00:56;;;;;;;47.25;30.85;;;;;;;4.95;71.11;99817.61;1764824;80;21078;-68
2022/12/17 15:03:33;;;;;;;221.40;131.07;;;;;;;4.93;71.25;99808.23;1761285;80;21361;-69
2022/12/17 15:06:08;;;;;;;154.53;96.53;;;;;;;4.95;71.47;99814.17;1772217;80;20982;-68
2022/12/17 15:08:39;;;;;;;78.93;34.03;;;;;;;4.93;71.56;99823.41;1762812;80;21968;-66
2022/12/17 15:11:06;;;;;;;129.20;79.07;;;;;;;4.89;71.37;99831.52;1763387;80;21050;-68
2022/12/17 15:13:33;;;;;;;70.17;31.35;;;;;;;4.80;71.39;99832.95;1766407;80;20999;-68
2022/12/17 15:15:59;;;;;;;155.67;100.00;;;;;;;4.79;71.21;99836.48;1764078;80;21248;-69
2022/12/17 15:18:27;;;;;;;81.85;39.95;;;;;;;4.79;71.13;99847.77;1762657;80;21034;-69
2022/12/17 15:20:54;;;;;;;40.03;19.90;;;;;;;4.81;71.09;99845.06;1759576;80;21590;-69
2022/12/17 15:23:21;;;;;;;39.95;27.60;;;;;;;4.84;71.27;99848.30;1767427;80;21627;-67
2022/12/17 15:25:49;;;;;;;24.30;16.97;;;;;;;4.82;71.62;99845.41;1761461;80;21090;-67
2022/12/17 15:28:16;;;;;;;28.23;18.25;;;;;;;4.83;71.78;99851.01;1767651;80;22500;-69
2022/12/17 15:30:44;;;;;;;23.95;16.20;;;;;;;4.78;71.66;99863.50;1769870;79;22151;-68
2022/12/17 15:33:11;;;;;;;14.98;7.72;;;;;;;4.69;71.58;99867.55;1771693;79;21548;-69
2022/12/17 15:35:38;;;;;;;15.45;7.03;;;;;;;4.58;71.77;99876.02;1762539;80;21610;-71
2022/12/17 15:38:05;;;;;;;10.90;7.37;;;;;;;4.49;72.01;99877.92;1774299;79;21357;-71
2022/12/17 15:40:31;;;;;;;17.00;13.08;;;;;;;4.42;72.11;99881.82;1770292;80;21231;-71
2022/12/17 15:43:09;;;;;;;11.30;5.53;;;;;;;4.31;72.36;99886.41;1777377;79;20994;-70
2022/12/17 15:45:45;;;;;;;12.58;6.55;;;;;;;4.30;72.54;99886.50;1711261;81;21071;-71
2022/12/17 15:48:14;;;;;;;12.40;6.50;;;;;;;4.33;72.46;99888.92;1718111;81;21796;-70
2022/12/17 15:50:40;;;;;;;15.28;8.75;;;;;;;4.36;72.44;99878.31;1715114;81;21626;-70
2022/12/17 15:53:08;;;;;;;23.62;16.42;;;;;;;4.43;72.42;99871.78;1711381;82;21140;-70
2022/12/17 15:55:35;;;;;;;16.15;9.65;;;;;;;4.53;72.65;99865.53;1717431;82;21031;-71
2022/12/17 15:58:02;;;;;;;19.42;16.07;;;;;;;4.63;73.00;99858.33;1685091;83;21095;-71
2022/12/17 16:00:28;;;;;;;20.25;14.70;;;;;;;4.67;73.05;99861.56;1751814;80;21570;-71
2022/12/17 16:02:55;;;;;;;11.35;6.92;;;;;;;4.70;72.67;99869.67;1754530;80;21508;-71
2022/12/17 16:05:21;;;;;;;16.30;9.13;;;;;;;4.59;72.35;99870.34;1751017;80;22390;-71
2022/12/17 16:07:49;;;;;;;13.90;8.48;;;;;;;4.47;72.61;99873.25;1758176;80;21019;-70
2022/12/17 16:10:15;;;;;;;19.62;15.38;;;;;;;4.33;72.72;99884.54;1678532;83;21075;-70
2022/12/17 16:12:42;;;;;;;14.40;6.95;;;;;;;4.21;72.91;99886.61;1751023;80;21035;-70
2022/12/17 16:15:11;;;;;;;12.98;8.38;;;;;;;4.24;73.05;99896.84;1755549;80;21059;-71
2022/12/17 16:17:38;;;;;;;10.93;6.72;;;;;;;4.32;73.08;99907.63;1756360;80;21164;-71
2022/12/17 16:20:06;;;;;;;18.75;14.15;;;;;;;4.41;73.09;99911.42;1755304;80;21023;-70
2022/12/17 16:22:33;;;;;;;22.13;16.73;;;;;;;4.44;73.09;99903.42;1750523;79;21030;-71
2022/12/17 16:24:59;;;;;;;25.72;20.15;;;;;;;4.45;73.17;99899.88;1697367;83;21027;-70
2022/12/17 16:27:26;;;;;;;17.92;10.70;;;;;;;4.43;73.23;99906.95;1761280;80;21062;-72
2022/12/17 16:29:52;;;;;;;26.68;21.80;;;;;;;4.41;73.39;99913.56;1752998;80;21260;-70
2022/12/17 16:32:19;;;;;;;14.95;10.18;;;;;;;4.38;73.42;99914.22;1754485;80;21161;-70
2022/12/17 16:34:45;;;;;;;33.58;27.80;;;;;;;4.33;73.37;99911.06;1743895;80;21104;-71
2022/12/17 16:37:12;;;;;;;23.22;11.30;;;;;;;4.25;73.31;99901.96;1749657;80;21029;-71
2022/12/17 16:39:38;;;;;;;27.98;20.97;;;;;;;4.23;73.31;99897.77;1751884;80;21114;-71
2022/12/17 16:42:05;;;;;;;22.25;15.03;;;;;;;4.24;73.09;99893.77;1752725;80;21239;-70
2022/12/17 16:44:33;;;;;;;15.28;7.87;;;;;;;4.27;72.93;99909.20;1748549;80;20999;-71
2022/12/17 16:47:00;;;;;;;19.65;15.48;;;;;;;4.25;72.76;99908.91;1755189;80;21118;-70
2022/12/17 16:49:27;;;;;;;13.95;8.50;;;;;;;4.21;73.14;99899.63;1753801;80;21015;-70
2022/12/17 16:51:55;;;;;;;21.37;17.95;;;;;;;4.19;73.15;99917.13;1694961;83;21079;-71
2022/12/17 16:54:25;;;;;;;21.20;16.20;;;;;;;4.11;73.12;99916.27;1748339;80;21030;-71
2022/12/17 16:56:51;;;;;;;18.30;13.48;;;;;;;4.01;73.20;99909.48;1744440;80;21016;-70
2022/12/17 16:59:18;;;;;;;11.70;6.20;;;;;;;4.00;73.26;99922.59;1727385;82;21090;-70
2022/12/17 17:01:46;;;;;;;11.35;5.90;;;;;;;3.98;73.25;99936.16;1728688;82;21099;-69
2022/12/17 17:04:15;;;;;;;12.30;6.17;;;;;;;4.01;73.19;99943.33;1720838;82;21067;-72
2022/12/17 17:06:44;;;;;;;17.77;12.13;;;;;;;4.02;73.13;99952.82;1722303;82;21233;-71
2022/12/17 17:09:11;;;;;;;15.48;10.35;;;;;;;4.00;73.43;99953.38;1723396;82;21083;-71
2022/12/17 17:11:38;;;;;;;13.55;5.05;;;;;;;4.00;73.52;99969.45;1723315;82;21092;-70
2022/12/17 17:14:05;;;;;;;9.18;4.20;;;;;;;3.98;73.41;99973.44;1722440;82;21098;-73
2022/12/17 17:16:33;;;;;;;14.07;10.10;;;;;;;3.88;73.27;99961.45;1729788;82;21177;-72
2022/12/17 17:19:00;;;;;;;11.53;5.03;;;;;;;3.79;73.35;99950.74;1725747;81;21255;-71
2022/12/17 17:21:37;;;;;;;10.13;5.33;;;;;;;3.77;73.58;99952.13;1718837;82;21054;-71
2022/12/17 17:24:14;;;;;;;11.83;4.42;;;;;;;3.86;73.33;99961.16;1675134;84;21062;-70
2022/12/17 17:26:41;;;;;;;13.93;8.45;;;;;;;3.95;73.47;99955.42;1724918;82;21007;-70
2022/12/17 17:29:08;;;;;;;10.80;4.00;;;;;;;4.01;73.38;99961.55;1725093;82;21150;-71
2022/12/17 17:31:35;;;;;;;11.05;7.45;;;;;;;4.01;73.18;99961.55;1724812;82;21223;-70
2022/12/17 17:34:09;;;;;;;8.95;3.80;;;;;;;3.96;72.93;99964.06;1728444;82;21019;-70
2022/12/17 17:36:35;;;;;;;8.55;3.75;;;;;;;3.87;73.09;99961.07;1722878;81;21445;-69
2022/12/17 17:39:02;;;;;;;7.33;4.00;;;;;;;3.81;73.14;99961.42;1725707;81;21015;-70
2022/12/17 17:41:31;;;;;;;9.53;5.50;;;;;;;3.86;73.11;99962.45;1730293;82;21396;-70
2022/12/17 17:44:04;;;;;;;6.90;3.33;;;;;;;3.93;73.00;99958.56;1720855;82;21290;-71
2022/12/17 17:46:31;;;;;;;7.08;2.85;;;;;;;3.97;72.81;99971.78;1718785;81;21353;-72
2022/12/17 17:48:58;;;;;;;10.90;5.95;;;;;;;3.91;72.71;100008.10;1718956;82;20989;-71
2022/12/17 17:51:29;;;;;;;7.67;3.45;;;;;;;3.78;73.00;99989.39;1719659;82;20931;-72
2022/12/17 17:53:56;;;;;;;8.68;5.12;;;;;;;3.69;73.25;100001.18;1721080;82;21658;-71
2022/12/17 17:56:28;;;;;;;5.37;2.37;;;;;;;3.60;74.05;100005.16;1722731;82;21043;-71
2022/12/17 17:58:58;;;;;;;6.92;4.22;;;;;;;3.59;74.02;99998.27;1750850;80;21032;-71
2022/12/17 18:01:30;;;;;;;4.75;1.90;;;;;;;3.66;74.19;100004.78;1758073;80;21109;-72
2022/12/17 18:03:59;;;;;;;4.62;1.72;;;;;;;3.69;74.08;100027.20;1759138;80;21102;-72
2022/12/17 18:06:29;;;;;;;5.47;2.47;;;;;;;3.57;74.05;100045.65;1751633;80;21060;-71
2022/12/17 18:08:56;;;;;;;5.80;2.42;;;;;;;3.45;74.34;100046.34;1760453;80;21252;-71
2022/12/17 18:11:23;;;;;;;6.33;2.20;;;;;;;3.41;75.17;100049.55;1755933;80;21040;-71
2022/12/17 18:13:54;;;;;;;5.83;3.52;;;;;;;3.46;74.86;100048.00;1761063;79;21100;-72
2022/12/17 18:16:37;;;;;;;3.85;1.20;;;;;;;3.48;74.67;100067.81;1763105;80;22300;-71
2022/12/17 18:19:08;;;;;;;4.83;1.82;;;;;;;3.47;74.54;100056.20;1764382;80;21649;-71
2022/12/17 18:21:35;;;;;;;5.78;2.17;;;;;;;3.41;74.61;100063.86;1758809;79;21763;-71
2022/12/17 18:24:08;;;;;;;4.67;1.70;;;;;;;3.36;74.65;100059.38;1757212;80;21489;-71
2022/12/17 18:26:38;;;;;;;5.97;1.60;;;;;;;3.35;74.60;100069.42;1762570;80;21049;-73
2022/12/17 18:29:15;;;;;;;4.87;2.65;;;;;;;3.46;74.45;100066.21;1763493;80;21133;-73
2022/12/17 18:31:42;;;;;;;4.92;1.52;;;;;;;3.55;74.00;100093.03;1755776;80;21059;-73
2022/12/17 18:34:12;;;;;;;5.42;2.58;;;;;;;3.50;73.77;100094.58;1701924;82;21254;-71
2022/12/17 18:36:40;;;;;;;4.45;1.40;;;;;;;3.46;73.77;100100.89;1677836;83;21145;-72
2022/12/17 18:39:13;;;;;;;7.12;3.17;;;;;;;3.42;73.69;100112.37;1761174;80;21041;-72
2022/12/17 18:44:25;;;;;;;6.20;2.12;;;;;;;3.41;73.69;100129.36;1757514;80;21069;-72
2022/12/17 18:46:51;;;;;;;5.28;2.50;;;;;;;3.43;73.67;100148.31;1757559;79;21261;-72
2022/12/17 18:49:20;;;;;;;3.70;1.30;;;;;;;3.38;73.62;100141.22;1758853;80;21034;-72
2022/12/17 18:51:47;;;;;;;4.80;1.20;;;;;;;3.32;73.82;100144.53;1759457;80;21117;-72
2022/12/17 18:54:20;;;;;;;7.30;3.12;;;;;;;3.30;73.83;100152.05;1759942;80;21034;-72
2022/12/17 18:56:46;;;;;;;5.00;1.62;;;;;;;3.27;73.94;100147.01;1765612;79;21023;-71
2022/12/17 18:59:17;;;;;;;3.95;1.47;;;;;;;3.29;73.77;100155.56;1754881;80;21160;-72
2022/12/17 19:01:44;;;;;;;5.37;2.50;;;;;;;3.36;73.59;100166.01;1749223;80;21031;-72
2022/12/17 19:04:13;;;;;;;4.00;0.85;;;;;;;3.38;73.19;100168.09;1750417;80;21082;-72
2022/12/17 19:06:42;;;;;;;3.92;1.80;;;;;;;3.35;73.02;100161.75;1751908;80;21115;-72
2022/12/17 19:09:18;;;;;;;4.87;1.95;;;;;;;3.35;73.16;100174.75;1755698;79;21063;-70
2022/12/17 19:11:45;;;;;;;2.83;1.10;;;;;;;3.30;72.80;100172.86;1759769;79;21138;-72
2022/12/17 19:14:13;;;;;;;1.75;0.60;;;;;;;3.19;72.60;100189.01;1761357;79;21070;-72
2022/12/17 19:16:39;;;;;;;3.22;0.80;;;;;;;3.12;72.74;100183.29;1725835;81;21056;-71
2022/12/17 19:19:05;;;;;;;2.25;0.72;;;;;;;3.11;72.72;100191.16;1760387;79;21093;-69
2022/12/17 19:21:33;;;;;;;3.35;1.02;;;;;;;3.12;72.54;100192.39;1701167;82;21035;-71
2022/12/17 19:24:02;;;;;;;4.87;1.80;;;;;;;3.20;72.55;100189.87;1759285;79;21265;-71
2022/12/17 19:26:29;;;;;;;3.83;1.22;;;;;;;3.19;72.36;100188.17;1756577;79;21007;-71
2022/12/17 19:28:56;;;;;;;5.03;2.20;;;;;;;3.15;72.34;100201.33;1697573;82;21785;-71
2022/12/17 19:31:25;;;;;;;3.22;0.78;;;;;;;3.15;72.41;100201.80;1757949;79;21019;-71
2022/12/17 19:34:00;;;;;;;3.33;1.10;;;;;;;3.21;72.30;100217.53;1716374;80;21793;-71
2022/12/17 19:36:28;;;;;;;2.05;0.60;;;;;;;3.29;72.00;100237.02;1762825;79;21208;-71
2022/12/17 19:38:58;;;;;;;4.62;1.02;;;;;;;3.31;71.46;100244.73;1761621;79;21160;-71
2022/12/17 19:41:26;;;;;;;2.42;0.70;;;;;;;3.27;71.45;100244.53;1697817;82;21127;-71
2022/12/17 19:43:57;;;;;;;3.40;0.93;;;;;;;3.19;71.40;100251.88;1759824;79;21090;-71
2022/12/17 19:46:24;;;;;;;3.90;1.10;;;;;;;3.11;71.52;100251.83;1756969;79;21106;-71
2022/12/17 19:48:51;;;;;;;3.58;1.22;;;;;;;3.09;71.74;100253.67;1759413;79;21219;-71
2022/12/17 19:51:21;;;;;;;3.25;0.98;;;;;;;3.12;71.90;100256.09;1760701;79;21156;-71
2022/12/17 19:53:48;;;;;;;3.17;0.98;;;;;;;3.27;71.70;100267.94;1760056;79;21067;-71
2022/12/17 19:56:26;;;;;;;3.85;1.50;;;;;;;3.26;71.04;100271.00;1725572;80;21078;-71
2022/12/17 19:58:56;;;;;;;2.40;0.70;;;;;;;3.20;71.25;100282.17;1688851;82;21131;-71
2022/12/17 20:01:25;;;;;;;2.92;0.90;;;;;;;3.12;71.49;100275.58;1679603;83;22293;-71
2022/12/17 20:03:52;;;;;;;3.40;1.10;;;;;;;3.11;71.74;100277.82;1737200;80;21057;-71
2022/12/17 20:06:22;;;;;;;2.58;0.70;;;;;;;3.10;71.86;100281.80;1738527;80;21642;-71
2022/12/17 20:08:49;;;;;;;2.42;0.72;;;;;;;3.16;71.50;100297.06;1744812;80;21153;-71
2022/12/17 20:11:34;;;;;;;2.35;0.50;;;;;;;3.20;71.32;100299.08;1739887;80;21147;-71
2022/12/17 20:14:19;;;;;;;3.20;0.82;;;;;;;3.24;71.35;100330.50;1738311;80;21168;-71
2022/12/17 20:16:52;;;;;;;2.17;0.60;;;;;;;3.21;71.10;100343.20;1740120;80;21054;-71
2022/12/17 20:19:21;;;;;;;2.85;1.02;;;;;;;3.21;70.81;100354.05;1720541;80;21082;-72
2022/12/17 20:21:49;;;;;;;3.45;1.25;;;;;;;3.12;70.98;100356.19;1741047;80;21051;-71
2022/12/17 20:24:16;;;;;;;2.00;0.70;;;;;;;2.96;71.51;100360.48;1738991;80;20995;-71
2022/12/17 20:26:42;;;;;;;3.75;1.35;;;;;;;2.93;71.64;100361.45;1742097;80;21574;-74
2022/12/17 20:29:08;;;;;;;2.25;0.70;;;;;;;2.99;71.66;100369.40;1741784;80;21591;-71
2022/12/17 20:31:35;;;;;;;2.33;0.60;;;;;;;3.03;71.35;100369.66;1740303;80;21067;-71
2022/12/17 20:34:03;;;;;;;2.00;0.53;;;;;;;3.04;71.33;100371.78;1737855;80;21114;-71
2022/12/17 20:36:30;;;;;;;1.92;0.60;;;;;;;2.98;71.32;100376.36;1738399;80;21536;-72
2022/12/17 20:38:56;;;;;;;2.27;0.70;;;;;;;2.96;71.55;100384.70;1743212;80;21888;-71
2022/12/17 20:41:25;;;;;;;2.77;0.75;;;;;;;2.94;71.62;100386.55;1745445;80;21015;-72
2022/12/17 20:43:52;;;;;;;2.20;0.70;;;;;;;2.90;71.60;100391.95;1741601;80;21043;-72
2022/12/17 20:46:19;;;;;;;3.62;0.78;;;;;;;2.90;71.61;100389.36;1740595;80;21531;-71
2022/12/17 20:48:46;;;;;;;2.60;1.00;;;;;;;2.96;71.50;100390.38;1742666;80;21051;-71
2022/12/17 20:51:23;;;;;;;3.52;1.07;;;;;;;3.01;71.30;100396.19;1738290;80;21259;-72
2022/12/17 20:53:51;;;;;;;3.25;1.25;;;;;;;3.05;71.29;100402.08;1738235;80;20975;-72
2022/12/17 20:56:22;;;;;;;2.62;0.95;;;;;;;3.05;71.38;100396.87;1739311;80;21129;-73
2022/12/17 20:58:54;;;;;;;1.90;0.60;;;;;;;2.98;71.14;100396.33;1748754;79;21113;-72
2022/12/17 21:01:22;;;;;;;2.10;0.88;;;;;;;2.95;70.99;100407.70;1760280;79;21107;-72
2022/12/17 21:03:51;;;;;;;4.47;0.85;;;;;;;2.96;70.92;100409.40;1759715;79;22270;-72
2022/12/17 21:06:26;;;;;;;1.55;0.57;;;;;;;3.01;70.47;100407.88;1762313;79;21062;-72
2022/12/17 21:08:54;;;;;;;2.37;0.60;;;;;;;3.02;70.42;100409.55;1765730;79;21946;-72
2022/12/17 21:11:23;;;;;;;1.98;0.90;;;;;;;3.01;70.61;100421.32;1761930;79;21501;-71
2022/12/17 21:13:49;;;;;;;3.08;0.80;;;;;;;2.96;70.75;100421.09;1763921;79;21023;-70
2022/12/17 21:16:22;;;;;;;2.58;0.90;;;;;;;2.90;70.87;100430.94;1767058;79;21330;-71
2022/12/17 21:18:53;;;;;;;2.47;0.80;;;;;;;2.83;71.07;100429.55;1765203;79;21087;-72
2022/12/17 21:21:22;;;;;;;2.62;0.78;;;;;;;2.82;71.08;100437.78;1768017;79;21091;-71
2022/12/17 21:23:48;;;;;;;2.80;1.25;;;;;;;2.83;70.87;100443.84;1761984;79;21122;-73
2022/12/17 21:26:20;;;;;;;3.27;0.90;;;;;;;2.81;70.90;100444.35;1725731;81;21122;-71
2022/12/17 21:28:49;;;;;;;4.22;1.32;;;;;;;2.82;70.91;100456.44;1759944;79;22106;-73
2022/12/17 21:31:23;;;;;;;4.40;1.80;;;;;;;2.75;70.88;100473.61;1724261;80;21015;-73
2022/12/17 21:33:51;;;;;;;4.08;1.30;;;;;;;2.70;70.96;100468.25;1765355;79;21487;-74
2022/12/17 21:36:19;;;;;;;4.62;1.50;;;;;;;2.65;70.78;100465.85;1728116;81;21114;-74
2022/12/17 21:38:46;;;;;;;3.67;1.20;;;;;;;2.56;70.75;100464.52;1724322;81;21999;-74
2022/12/17 21:41:15;;;;;;;4.03;1.22;;;;;;;2.55;70.96;100466.72;1762501;79;21547;-74
2022/12/17 21:43:42;;;;;;;9.13;4.08;;;;;;;2.62;70.47;100473.78;1765384;79;21044;-74
2022/12/17 21:46:09;;;;;;;3.95;1.50;;;;;;;2.66;70.16;100492.70;1762281;79;21038;-74
2022/12/17 21:48:37;;;;;;;5.92;2.60;;;;;;;2.59;69.88;100483.88;1762069;79;21043;-74
2022/12/17 21:51:05;;;;;;;8.25;1.80;;;;;;;2.53;69.78;100487.20;1762133;79;21091;-75
2022/12/17 21:53:32;;;;;;;4.37;1.65;;;;;;;2.53;69.84;100498.42;1761454;79;21268;-75
2022/12/17 21:56:04;;;;;;;4.10;1.32;;;;;;;2.47;70.01;100504.34;1726226;81;21067;-74
2022/12/17 21:58:32;;;;;;;3.08;1.32;;;;;;;2.44;70.14;100525.26;1761468;79;21043;-73
2022/12/17 22:01:25;;;;;;;5.25;2.02;;;;;;;2.49;70.12;100508.58;1767391;79;22004;-73
2022/12/17 22:03:49;;;;;;;4.15;1.55;;;;;;;2.54;70.19;100508.35;1768179;79;21094;-73
2022/12/17 22:06:17;;;;;;;5.17;1.82;;;;;;;2.59;70.27;100512.92;1765120;79;21257;-73
2022/12/17 22:08:44;;;;;;;5.28;1.57;;;;;;;2.55;70.18;100512.64;1770334;79;21082;-73
2022/12/17 22:11:19;;;;;;;5.67;2.50;;;;;;;2.51;70.46;100530.59;1733238;80;21095;-73
2022/12/17 22:14:08;;;;;;;4.65;1.75;;;;;;;2.47;70.60;100538.11;1771292;79;21012;-74
2022/12/17 22:16:41;;;;;;;6.17;2.05;;;;;;;2.49;70.83;100546.25;1765070;79;21113;-74
2022/12/17 22:19:13;;;;;;;5.25;1.90;;;;;;;2.57;70.67;100554.55;1768202;79;21908;-74
2022/12/17 22:21:41;;;;;;;6.87;2.40;;;;;;;2.62;70.49;100564.72;1768196;79;21576;-74
2022/12/17 22:24:13;;;;;;;8.65;2.50;;;;;;;2.55;70.39;100582.78;1770747;79;21591;-75
2022/12/17 22:26:40;;;;;;;11.35;6.80;;;;;;;2.45;70.62;100587.53;1765761;79;21094;-74
2022/12/17 22:29:06;;;;;;;7.35;2.67;;;;;;;2.37;70.58;100593.50;1771318;79;21066;-75
2022/12/17 22:34:11;;;;;;;7.15;2.83;;;;;;;2.17;71.03;100596.94;1650577;85;21090;-74
2022/12/17 22:36:38;;;;;;;6.80;2.27;;;;;;;2.13;70.87;100610.50;1711016;82;21046;-74
2022/12/17 22:39:10;;;;;;;5.87;2.90;;;;;;;2.14;70.65;100628.24;1705283;82;21035;-74
2022/12/17 22:44:24;;;;;;;7.05;3.33;;;;;;;2.16;70.91;100622.06;1774803;79;21180;-76
2022/12/17 22:46:51;;;;;;;7.25;3.17;;;;;;;2.13;70.35;100626.55;1768147;79;21051;-75
2022/12/17 22:49:18;;;;;;;8.85;3.80;;;;;;;2.09;70.12;100617.20;1772138;79;21019;-76
2022/12/17 22:51:44;;;;;;;6.50;2.92;;;;;;;2.03;69.50;100619.14;1708295;82;21090;-75
2022/12/17 22:54:12;;;;;;;8.40;4.10;;;;;;;2.02;69.26;100616.61;1709438;82;21619;-75
2022/12/17 22:56:40;;;;;;;10.43;3.92;;;;;;;1.99;69.21;100622.75;1764785;79;21138;-72
2022/12/17 22:59:07;;;;;;;7.25;3.10;;;;;;;2.05;69.09;100633.33;1730770;80;21096;-75
2022/12/17 23:01:33;;;;;;;9.50;3.90;;;;;;;2.12;68.85;100643.02;1761165;79;21102;-75
2022/12/17 23:04:01;;;;;;;7.47;3.12;;;;;;;2.09;68.21;100647.06;1764769;79;21047;-75
2022/12/17 23:06:27;;;;;;;9.93;4.08;;;;;;;1.98;67.91;100641.81;1761667;79;21098;-75
2022/12/17 23:08:54;;;;;;;7.70;3.17;;;;;;;1.88;68.24;100639.20;1723506;81;21114;-75
2022/12/17 23:11:26;;;;;;;9.40;3.85;;;;;;;1.89;68.33;100634.88;1765995;79;21043;-74
2022/12/17 23:13:53;;;;;;;10.03;3.65;;;;;;;1.86;68.49;100637.13;1700980;82;21063;-74
2022/12/17 23:16:20;;;;;;;9.50;4.45;;;;;;;1.85;68.56;100646.67;1698069;82;21119;-75
2022/12/17 23:18:47;;;;;;;7.33;3.77;;;;;;;1.80;68.58;100651.63;1759993;79;21083;-74
2022/12/17 23:21:20;;;;;;;11.25;4.20;;;;;;;1.81;68.78;100653.33;1757505;79;21649;-75
2022/12/17 23:23:47;;;;;;;8.23;4.80;;;;;;;1.77;69.00;100660.86;1762247;79;21071;-76
2022/12/17 23:26:21;;;;;;;9.30;5.03;;;;;;;1.80;68.74;100681.04;1720798;80;21067;-75
2022/12/17 23:28:48;;;;;;;10.32;5.03;;;;;;;1.76;68.62;100672.13;1699980;82;21103;-74
2022/12/17 23:31:17;;;;;;;10.50;5.22;;;;;;;1.72;68.90;100681.78;1679598;83;21098;-74
2022/12/17 23:33:44;;;;;;;9.38;4.65;;;;;;;1.73;69.26;100702.08;1762635;79;21263;-74
2022/12/17 23:36:13;;;;;;;10.32;4.45;;;;;;;1.73;69.18;100709.86;1761631;79;21043;-74
2022/12/17 23:38:40;;;;;;;9.48;5.22;;;;;;;1.68;69.42;100691.87;1762739;79;21043;-74
2022/12/17 23:41:11;;;;;;;11.57;5.17;;;;;;;1.63;69.42;100700.28;1764002;79;21285;-75
2022/12/17 23:43:37;;;;;;;14.80;5.80;;;;;;;1.57;68.81;100716.93;1762665;79;22640;-75
2022/12/17 23:46:04;;;;;;;10.50;5.20;;;;;;;1.54;68.87;100698.05;1701124;82;21170;-74
2022/12/17 23:48:35;;;;;;;11.38;5.53;;;;;;;1.54;69.05;100701.94;1763969;79;21023;-75
2022/12/17 23:51:02;;;;;;;11.05;6.35;;;;;;;1.48;68.89;100707.75;1760460;79;21082;-75
2022/12/17 23:53:30;;;;;;;11.93;6.12;;;;;;;1.48;68.76;100724.61;1722920;81;21531;-75
2022/12/17 23:56:05;;;;;;;11.15;6.22;;;;;;;1.44;68.31;100735.14;1761582;79;21062;-75
2022/12/17 23:58:34;;;;;;;10.90;4.92;;;;;;;1.39;68.43;100739.64;1760019;79;21930;-75
